createdAt,value
2018-11-28T00:00:51.948Z,2.00
2018-11-28T00:03:57.287Z,2.00
2018-11-28T00:07:02.780Z,2.10
2018-11-28T00:10:13.835Z,2.10
2018-11-28T00:13:19.311Z,2.10
2018-11-28T00:16:24.665Z,2.10
2018-11-28T00:19:30.137Z,2.10
2018-11-28T00:22:35.764Z,2.00
2018-11-28T00:25:41.122Z,2.00
2018-11-28T00:28:46.591Z,1.90
2018-11-28T00:31:52.037Z,2.00
2018-11-28T00:34:57.404Z,1.90
2018-11-28T00:38:02.746Z,1.90
2018-11-28T00:41:08.281Z,2.00
2018-11-28T00:44:13.728Z,1.90
2018-11-28T00:47:19.105Z,1.80
2018-11-28T00:50:27.796Z,1.90
2018-11-28T00:53:33.935Z,1.90
2018-11-28T00:56:39.301Z,1.90
2018-11-28T00:59:44.732Z,1.90
2018-11-28T01:02:51.351Z,1.90
2018-11-28T01:05:56.775Z,1.90
2018-11-28T01:09:02.199Z,1.90
2018-11-28T01:12:07.671Z,1.90
2018-11-28T01:15:14.684Z,1.80
2018-11-28T01:18:20.104Z,1.70
2018-11-28T01:21:25.665Z,1.70
2018-11-28T01:24:31.084Z,1.60
2018-11-28T01:27:36.486Z,1.60
2018-11-28T01:30:41.829Z,1.70
2018-11-28T01:33:47.344Z,1.60
2018-11-28T01:36:54.544Z,1.70
2018-11-28T01:39:59.907Z,1.70
2018-11-28T01:43:07.218Z,1.60
2018-11-28T01:46:11.645Z,1.60
2018-11-28T01:49:17.017Z,1.60
2018-11-28T01:52:24.593Z,1.50
2018-11-28T01:55:29.977Z,1.50
2018-11-28T01:58:35.390Z,1.50
2018-11-28T02:01:40.813Z,1.50
2018-11-28T02:04:46.216Z,1.40
2018-11-28T02:07:51.695Z,1.40
2018-11-28T02:10:57.425Z,1.40
2018-11-28T02:14:02.796Z,1.40
2018-11-28T02:17:08.474Z,1.50
2018-11-28T02:20:16.257Z,1.50
2018-11-28T02:23:21.748Z,1.50
2018-11-28T02:26:27.114Z,1.40
2018-11-28T02:29:32.601Z,1.50
2018-11-28T02:32:38.735Z,1.40
2018-11-28T02:35:44.219Z,1.40
2018-11-28T02:38:49.764Z,1.40
2018-11-28T02:41:55.293Z,1.40
2018-11-28T02:45:00.660Z,1.40
2018-11-28T02:48:06.197Z,1.40
2018-11-28T02:51:11.672Z,1.30
2018-11-28T02:54:17.046Z,1.30
2018-11-28T02:57:23.352Z,1.30
2018-11-28T03:00:29.148Z,1.30
2018-11-28T03:03:34.682Z,1.30
2018-11-28T03:06:40.145Z,1.20
2018-11-28T03:09:45.620Z,1.10
2018-11-28T03:12:51.131Z,1.10
2018-11-28T03:15:59.529Z,1.10
2018-11-28T03:19:05.297Z,1.10
2018-11-28T03:22:10.872Z,1.10
2018-11-28T03:25:16.631Z,1.10
2018-11-28T03:28:22.043Z,1.10
2018-11-28T03:31:27.517Z,1.10
2018-11-28T03:34:32.876Z,1.10
2018-11-28T03:37:38.312Z,1.10
2018-11-28T03:40:43.761Z,1.10
2018-11-28T03:43:49.193Z,0.90
2018-11-28T03:46:54.665Z,1.10
2018-11-28T03:50:00.497Z,1.00
2018-11-28T03:53:07.336Z,1.10
2018-11-28T03:56:12.745Z,1.00
2018-11-28T03:59:18.110Z,0.90
2018-11-28T04:02:23.651Z,0.70
2018-11-28T04:05:29.065Z,0.70
2018-11-28T04:08:34.444Z,0.90
2018-11-28T04:11:39.936Z,0.90
2018-11-28T04:14:45.296Z,0.90
2018-11-28T04:17:51.519Z,0.80
2018-11-28T04:20:56.937Z,0.80
2018-11-28T04:24:02.651Z,0.80
2018-11-28T04:27:08.384Z,0.80
2018-11-28T04:30:15.625Z,0.80
2018-11-28T04:33:21.041Z,0.80
2018-11-28T04:36:26.453Z,0.80
2018-11-28T04:39:31.825Z,0.90
2018-11-28T04:42:37.291Z,0.90
2018-11-28T04:45:42.772Z,0.80
2018-11-28T04:48:48.235Z,0.80
2018-11-28T04:51:53.801Z,0.80
2018-11-28T04:54:59.222Z,0.80
2018-11-28T04:58:04.908Z,0.80
2018-11-28T05:01:10.361Z,0.70
2018-11-28T05:04:15.796Z,0.70
2018-11-28T05:07:29.689Z,0.70
2018-11-28T05:10:35.064Z,0.60
2018-11-28T05:13:40.545Z,0.60
2018-11-28T05:16:45.972Z,0.60
2018-11-28T05:19:51.442Z,0.60
2018-11-28T05:22:57.004Z,0.60
2018-11-28T05:26:02.520Z,0.50
2018-11-28T05:29:07.901Z,0.60
2018-11-28T05:32:13.424Z,0.60
2018-11-28T05:35:20.941Z,0.60
2018-11-28T05:38:26.324Z,0.70
2018-11-28T05:41:31.733Z,0.70
2018-11-28T05:44:37.124Z,0.50
2018-11-28T05:47:42.483Z,0.50
2018-11-28T05:50:47.873Z,0.40
2018-11-28T05:53:53.316Z,0.50
2018-11-28T05:56:58.680Z,0.60
2018-11-28T06:00:05.428Z,0.60
2018-11-28T06:03:12.628Z,0.60
2018-11-28T06:06:18.005Z,0.50
2018-11-28T06:09:23.460Z,0.40
2018-11-28T06:12:29.046Z,0.40
2018-11-28T06:15:34.553Z,0.40
2018-11-28T06:18:40.539Z,0.30
2018-11-28T06:21:45.469Z,0.30
2018-11-28T06:24:51.388Z,0.30
2018-11-28T06:27:56.815Z,0.30
2018-11-28T06:31:02.292Z,0.40
2018-11-28T06:34:07.892Z,0.20
2018-11-28T06:37:13.227Z,0.20
2018-11-28T06:40:23.895Z,0.30
2018-11-28T06:43:24.588Z,0.30
2018-11-28T06:46:30.556Z,0.30
2018-11-28T06:49:36.016Z,0.30
2018-11-28T06:52:41.742Z,0.30
2018-11-28T06:55:48.155Z,0.40
2018-11-28T06:58:53.540Z,0.40
2018-11-28T07:01:59.171Z,0.30
2018-11-28T07:05:05.163Z,0.30
2018-11-28T07:08:10.516Z,0.40
2018-11-28T07:11:15.993Z,0.30
2018-11-28T07:14:21.347Z,0.30
2018-11-28T07:17:26.859Z,0.30
2018-11-28T07:20:32.337Z,0.30
2018-11-28T07:23:37.769Z,0.40
2018-11-28T07:26:43.145Z,0.40
2018-11-28T07:29:48.544Z,0.40
2018-11-28T07:32:58.440Z,0.40
2018-11-28T07:36:04.895Z,0.50
2018-11-28T07:39:10.636Z,0.50
2018-11-28T07:42:16.015Z,0.50
2018-11-28T07:45:21.483Z,0.60
2018-11-28T07:48:27.185Z,0.60
2018-11-28T07:51:32.688Z,0.50
2018-11-28T07:54:38.092Z,0.50
2018-11-28T07:57:43.580Z,0.50
2018-11-28T08:00:48.968Z,0.60
2018-11-28T08:03:54.324Z,0.60
2018-11-28T08:06:59.736Z,0.70
2018-11-28T08:10:07.360Z,0.70
2018-11-28T08:13:13.385Z,0.60
2018-11-28T08:16:18.837Z,0.70
2018-11-28T08:19:24.239Z,0.60
2018-11-28T08:22:29.710Z,0.70
2018-11-28T08:25:35.612Z,0.80
2018-11-28T08:28:41.037Z,0.80
2018-11-28T08:31:47.120Z,0.90
2018-11-28T08:34:52.502Z,0.90
2018-11-28T08:37:58.279Z,0.90
2018-11-28T08:41:03.691Z,1.00
2018-11-28T08:44:09.160Z,1.10
2018-11-28T08:47:14.533Z,1.10
2018-11-28T08:50:25.591Z,1.20
2018-11-28T08:53:30.041Z,1.40
2018-11-28T08:56:35.475Z,1.70
2018-11-28T08:59:40.940Z,2.10
2018-11-28T09:02:48.048Z,2.40
2018-11-28T09:05:53.428Z,2.60
2018-11-28T09:08:58.940Z,2.70
2018-11-28T09:12:04.376Z,2.60
2018-11-28T09:15:13.748Z,2.70
2018-11-28T09:18:19.119Z,2.60
2018-11-28T09:21:24.524Z,2.70
2018-11-28T09:24:29.872Z,2.70
2018-11-28T09:27:35.232Z,2.80
2018-11-28T09:30:40.615Z,2.90
2018-11-28T09:33:46.413Z,3.00
2018-11-28T09:36:51.848Z,2.90
2018-11-28T09:39:57.277Z,3.00
2018-11-28T09:43:02.662Z,3.00
2018-11-28T09:46:08.477Z,3.30
2018-11-28T09:49:13.927Z,3.40
2018-11-28T09:52:19.303Z,3.20
2018-11-28T09:55:28.888Z,3.20
2018-11-28T09:58:34.311Z,3.10
2018-11-28T10:01:39.742Z,3.00
2018-11-28T10:04:45.209Z,3.10
2018-11-28T10:07:50.754Z,3.10
2018-11-28T10:10:56.164Z,3.20
2018-11-28T10:14:01.637Z,3.20
2018-11-28T10:17:07.495Z,3.10
2018-11-28T10:20:14.380Z,3.10
2018-11-28T10:23:20.463Z,3.10
2018-11-28T10:26:25.822Z,3.10
2018-11-28T10:29:31.231Z,3.20
2018-11-28T10:32:36.624Z,3.30
2018-11-28T10:35:42.854Z,3.30
2018-11-28T10:38:48.297Z,3.20
2018-11-28T10:41:53.685Z,3.10
2018-11-28T10:44:59.172Z,3.10
2018-11-28T10:48:04.689Z,2.90
2018-11-28T10:51:10.412Z,3.00
2018-11-28T10:54:15.793Z,2.90
2018-11-28T10:57:21.200Z,3.10
2018-11-28T11:00:36.418Z,3.30
2018-11-28T11:03:47.193Z,3.40
2018-11-28T11:06:57.910Z,3.50
2018-11-28T11:10:08.492Z,3.60
2018-11-28T11:13:19.579Z,3.50
2018-11-28T11:16:30.573Z,3.50
2018-11-28T11:19:36.018Z,3.50
2018-11-28T11:22:41.424Z,3.60
2018-11-28T11:25:46.823Z,3.70
2018-11-28T11:28:52.211Z,3.80
2018-11-28T11:31:57.901Z,3.70
2018-11-28T11:35:03.314Z,3.70
2018-11-28T11:38:08.795Z,3.60
2018-11-28T11:41:14.244Z,3.60
2018-11-28T11:44:19.688Z,3.60
2018-11-28T11:47:25.103Z,4.00
2018-11-28T11:50:30.473Z,4.20
2018-11-28T11:53:36.433Z,4.40
2018-11-28T11:56:41.857Z,4.40
2018-11-28T11:59:47.187Z,4.10
2018-11-28T12:03:10.344Z,4.10
2018-11-28T12:06:15.751Z,4.00
2018-11-28T12:09:32.683Z,3.70
2018-11-28T12:12:38.118Z,3.70
2018-11-28T12:15:43.909Z,3.90
2018-11-28T12:18:49.313Z,4.10
2018-11-28T12:21:54.734Z,4.30
2018-11-28T12:25:00.124Z,4.40
2018-11-28T12:28:06.575Z,4.30
2018-11-28T12:31:12.042Z,4.40
2018-11-28T12:34:18.294Z,4.10
2018-11-28T12:37:24.313Z,4.10
2018-11-28T12:40:32.889Z,4.10
2018-11-28T12:43:38.327Z,4.10
2018-11-28T12:46:43.810Z,4.30
2018-11-28T12:49:49.168Z,5.00
2018-11-28T12:52:56.232Z,5.40
2018-11-28T12:56:01.672Z,5.50
2018-11-28T12:59:07.465Z,5.40
2018-11-28T13:02:12.866Z,5.20
2018-11-28T13:05:19.866Z,4.90
2018-11-28T13:08:25.311Z,4.70
2018-11-28T13:11:30.758Z,4.60
2018-11-28T13:14:36.188Z,4.40
2018-11-28T13:17:41.664Z,4.40
2018-11-28T13:20:47.080Z,4.10
2018-11-28T13:23:52.504Z,4.00
2018-11-28T13:26:57.908Z,4.00
2018-11-28T13:30:03.340Z,3.70
2018-11-28T13:33:10.219Z,3.80
2018-11-28T13:36:15.584Z,3.90
2018-11-28T13:39:21.037Z,3.90
2018-11-28T13:42:26.477Z,3.80
2018-11-28T13:45:33.963Z,3.70
2018-11-28T13:48:39.424Z,3.70
2018-11-28T13:51:47.078Z,3.60
2018-11-28T13:55:37.774Z,3.60
2018-11-28T13:57:57.840Z,3.60
2018-11-28T14:01:03.308Z,3.40
2018-11-28T14:04:08.716Z,3.40
2018-11-28T14:07:14.163Z,3.40
2018-11-28T14:10:19.740Z,3.40
2018-11-28T14:13:25.221Z,3.40
2018-11-28T14:16:31.200Z,3.40
2018-11-28T14:19:36.688Z,3.50
2018-11-28T14:22:43.051Z,3.50
2018-11-28T14:25:48.481Z,3.40
2018-11-28T14:28:53.968Z,3.40
2018-11-28T14:31:59.355Z,3.40
2018-11-28T14:35:05.430Z,3.40
2018-11-28T14:38:11.171Z,3.30
2018-11-28T14:41:16.665Z,3.30
2018-11-28T14:44:22.104Z,3.40
2018-11-28T14:47:28.051Z,3.40
2018-11-28T14:50:34.220Z,3.40
2018-11-28T14:53:39.940Z,3.50
2018-11-28T14:56:45.321Z,3.40
2018-11-28T14:59:50.697Z,3.40
2018-11-28T15:03:17.497Z,3.20
2018-11-28T15:06:34.120Z,3.20
2018-11-28T15:09:44.859Z,3.20
2018-11-28T15:12:50.360Z,3.10
2018-11-28T15:15:55.825Z,3.10
2018-11-28T15:19:01.645Z,3.00
2018-11-28T15:22:07.825Z,3.00
2018-11-28T15:25:13.208Z,3.00
2018-11-28T15:28:18.568Z,3.00
2018-11-28T15:31:24.337Z,3.00
2018-11-28T15:34:29.801Z,3.00
2018-11-28T15:37:35.188Z,3.00
2018-11-28T15:40:40.640Z,2.90
2018-11-28T15:43:46.075Z,2.90
2018-11-28T15:46:51.534Z,2.90
2018-11-28T15:49:57.114Z,2.90
2018-11-28T15:53:02.592Z,2.90
2018-11-28T15:56:08.257Z,2.80
2018-11-28T15:59:13.720Z,2.80
2018-11-28T16:02:19.965Z,2.80
2018-11-28T16:05:25.559Z,2.70
2018-11-28T16:08:31.308Z,2.60
2018-11-28T16:11:37.067Z,2.60
2018-11-28T16:14:42.439Z,2.60
2018-11-28T16:17:47.872Z,2.70
2018-11-28T16:20:53.312Z,2.50
2018-11-28T16:23:59.007Z,2.50
2018-11-28T16:27:04.736Z,2.40
2018-11-28T16:30:15.277Z,2.50
2018-11-28T16:33:20.745Z,2.40
2018-11-28T16:36:26.192Z,2.50
2018-11-28T16:39:31.585Z,2.50
2018-11-28T16:42:37.496Z,2.60
2018-11-28T16:45:42.904Z,2.50
2018-11-28T16:48:48.268Z,2.50
2018-11-28T16:51:53.736Z,2.50
2018-11-28T16:54:59.083Z,2.60
2018-11-28T16:58:04.862Z,2.50
2018-11-28T17:01:10.221Z,2.60
2018-11-28T17:04:16.671Z,2.50
2018-11-28T17:07:22.097Z,2.60
2018-11-28T17:10:29.483Z,2.60
2018-11-28T17:13:34.921Z,2.60
2018-11-28T17:16:41.027Z,2.60
2018-11-28T17:19:46.362Z,2.60
2018-11-28T17:22:53.444Z,2.70
2018-11-28T17:25:58.871Z,2.70
2018-11-28T17:29:04.357Z,2.70
2018-11-28T17:32:09.892Z,2.70
2018-11-28T17:35:15.728Z,2.80
2018-11-28T17:38:21.196Z,2.70
2018-11-28T17:41:27.041Z,2.70
2018-11-28T17:44:33.854Z,2.60
2018-11-28T17:47:39.304Z,2.70
2018-11-28T17:50:44.716Z,2.80
2018-11-28T17:53:50.105Z,2.90
2018-11-28T17:56:55.515Z,3.00
2018-11-28T18:00:01.474Z,2.80
2018-11-28T18:03:07.576Z,2.90
2018-11-28T18:06:12.996Z,2.70
2018-11-28T18:09:18.447Z,2.80
2018-11-28T18:12:23.905Z,2.80
2018-11-28T18:15:29.366Z,2.80
2018-11-28T18:18:34.931Z,2.80
2018-11-28T18:21:40.768Z,3.00
2018-11-28T18:24:46.199Z,2.90
2018-11-28T18:27:51.788Z,2.80
2018-11-28T18:30:57.136Z,2.70
2018-11-28T18:34:02.757Z,2.70
2018-11-28T18:37:08.356Z,2.70
2018-11-28T18:40:14.048Z,2.80
2018-11-28T18:43:19.422Z,2.90
2018-11-28T18:46:24.785Z,2.80
2018-11-28T18:49:30.204Z,2.80
2018-11-28T18:52:38.133Z,2.70
2018-11-28T18:55:43.805Z,2.80
2018-11-28T18:58:49.164Z,2.80
2018-11-28T19:01:54.548Z,2.80
2018-11-28T19:05:00.024Z,2.70
2018-11-28T19:08:05.772Z,2.80
2018-11-28T19:11:11.226Z,2.80
2018-11-28T19:14:16.591Z,2.80
2018-11-28T19:17:21.988Z,2.80
2018-11-28T19:20:28.081Z,2.70
2018-11-28T19:23:33.774Z,2.80
2018-11-28T19:26:39.168Z,2.80
2018-11-28T19:29:44.540Z,2.90
2018-11-28T19:32:50.057Z,2.90
2018-11-28T19:35:55.522Z,2.90
2018-11-28T19:39:00.975Z,2.80
2018-11-28T19:42:06.808Z,2.80
2018-11-28T19:45:12.221Z,2.70
2018-11-28T19:48:17.611Z,2.70
2018-11-28T19:51:23.055Z,2.80
2018-11-28T19:54:28.537Z,2.80
2018-11-28T19:57:33.971Z,2.80
2018-11-28T20:00:42.492Z,2.90
2018-11-28T20:03:47.942Z,2.90
2018-11-28T20:06:53.645Z,2.90
2018-11-28T20:09:59.411Z,2.90
2018-11-28T20:13:05.612Z,2.80
2018-11-28T20:16:10.973Z,2.80
2018-11-28T20:19:17.664Z,2.70
2018-11-28T20:22:21.952Z,2.80
2018-11-28T20:25:27.420Z,2.80
2018-11-28T20:28:32.773Z,2.70
2018-11-28T20:31:38.322Z,2.80
2018-11-28T20:34:43.728Z,2.70
2018-11-28T20:37:49.188Z,2.80
2018-11-28T20:40:54.966Z,2.80
2018-11-28T20:44:00.340Z,2.80
2018-11-28T20:47:05.899Z,2.80
2018-11-28T20:50:29.964Z,2.80
2018-11-28T20:53:35.489Z,2.70
2018-11-28T20:56:40.978Z,2.80
2018-11-28T20:59:46.617Z,2.70
2018-11-28T21:02:52.175Z,2.80
2018-11-28T21:05:57.724Z,2.80
2018-11-28T21:09:03.123Z,2.70
2018-11-28T21:12:08.832Z,2.70
2018-11-28T21:15:15.471Z,2.60
2018-11-28T21:18:20.912Z,2.60
2018-11-28T21:21:27.497Z,2.60
2018-11-28T21:24:31.839Z,2.60
2018-11-28T21:27:37.468Z,2.60
2018-11-28T21:30:43.552Z,2.60
2018-11-28T21:33:49.164Z,2.60
2018-11-28T21:36:54.556Z,2.60
2018-11-28T21:40:00.090Z,2.60
2018-11-28T21:43:05.949Z,2.60
2018-11-28T21:46:11.420Z,2.60
2018-11-28T21:49:16.842Z,2.50
2018-11-28T21:52:22.514Z,2.60
2018-11-28T21:55:27.912Z,2.50
2018-11-28T21:58:33.287Z,2.50
2018-11-28T22:01:38.696Z,2.50
2018-11-28T22:04:44.056Z,2.60
2018-11-28T22:07:49.561Z,2.70
2018-11-28T22:10:55.108Z,2.60
2018-11-28T22:14:01.107Z,2.70
2018-11-28T22:17:07.000Z,2.80
2018-11-28T22:20:13.681Z,2.80
2018-11-28T22:23:19.172Z,2.70
2018-11-28T22:26:24.542Z,2.70
2018-11-28T22:29:29.927Z,2.80
2018-11-28T22:32:35.399Z,2.90
2018-11-28T22:35:40.848Z,2.90
2018-11-28T22:38:46.321Z,2.90
2018-11-28T22:41:51.771Z,3.00
2018-11-28T22:44:57.129Z,2.90
2018-11-28T22:48:02.512Z,2.90
2018-11-28T22:51:08.178Z,3.00
2018-11-28T22:54:13.687Z,3.10
2018-11-28T22:57:19.061Z,3.10
2018-11-28T23:00:32.355Z,3.00
2018-11-28T23:03:38.034Z,3.10
2018-11-28T23:06:43.412Z,3.10
2018-11-28T23:09:48.758Z,3.10
2018-11-28T23:12:55.214Z,3.10
2018-11-28T23:16:00.973Z,3.10
2018-11-28T23:19:07.096Z,3.10
2018-11-28T23:22:12.549Z,3.10
2018-11-28T23:25:17.884Z,3.10
2018-11-28T23:28:23.783Z,3.10
2018-11-28T23:31:29.209Z,3.10
2018-11-28T23:34:34.540Z,3.20
2018-11-28T23:37:40.825Z,3.10
2018-11-28T23:40:46.239Z,3.00
2018-11-28T23:43:51.661Z,3.00
2018-11-28T23:46:57.125Z,3.10
2018-11-28T23:50:02.476Z,3.20
2018-11-28T23:53:07.952Z,3.20
2018-11-28T23:56:13.324Z,3.20
2018-11-28T23:59:18.648Z,3.10
